Time;durP1;ratioP1;P1;durP2;ratioP2;P2;SDS_P1;SDS_P2;PMS_P1;PMS_P2;Temp;Humidity;BMP_temperature;BMP_pressure;BME280_temperature;BME280_humidity;BME280_pressure;Samples;Min_cycle;Max_cycle;Signal;HPM_P1;HPM_P2
2024/03/31 00:00:12;;;;;;;;;;;;;;;6.48;99.14;96889.38;5091526;28;19923;-92
2024/03/31 00:02:39;;;;;;;;;;;;;;;6.45;97.83;96901.66;5081941;28;19916;-93
2024/03/31 00:05:04;;;;;;;;;;;;;;;6.38;97.41;96913.94;5097506;28;20289;-91
2024/03/31 00:07:30;;;;;;;;;;;;;;;6.28;97.44;96918.19;5100162;28;19967;-92
2024/03/31 00:09:55;;;;;;;;;;;;;;;6.26;97.88;96919.00;5082255;28;19983;-92
2024/03/31 00:12:21;;;;;;;;;;;;;;;6.30;98.02;96913.78;5098967;28;19916;-92
2024/03/31 00:14:46;;;;;;;;;;;;;;;6.32;97.47;96914.69;5094450;28;19927;-92
2024/03/31 00:17:11;;;;;;;;;;;;;;;6.21;97.39;96923.34;5094299;28;19951;-91
2024/03/31 00:19:37;;;;;;;;;;;;;;;6.17;97.90;96925.03;5082880;28;19907;-92
2024/03/31 00:22:03;;;;;;;;;;;;;;;6.16;97.93;96931.19;5100960;28;19999;-92
2024/03/31 00:24:28;;;;;;;;;;;;;;;6.15;98.16;96937.38;5091250;28;19928;-92
2024/03/31 00:26:53;;;;;;;;;;;;;;;6.16;98.64;96941.78;5088547;28;19916;-92
2024/03/31 00:29:19;;;;;;;;;;;;;;;6.22;98.08;96931.31;5095791;28;19955;-92
2024/03/31 00:31:45;;;;;;;;;;;;;;;6.28;97.69;96935.84;5098814;28;19920;-91
2024/03/31 00:34:10;;;;;;;;;;;;;;;6.25;97.89;96941.97;5080732;28;19923;-92
2024/03/31 00:36:36;;;;;;;;;;;;;;;6.28;98.07;96943.78;5098160;28;19916;-92
2024/03/31 00:39:01;;;;;;;;;;;;;;;6.34;97.69;96950.06;5077509;28;20393;-92
2024/03/31 00:41:26;;;;;;;;;;;;;;;6.35;97.97;96950.94;5087802;28;19920;-92
2024/03/31 00:43:52;;;;;;;;;;;;;;;6.33;97.80;96958.88;5071582;28;20031;-92
2024/03/31 00:46:17;;;;;;;;;;;;;;;6.39;97.88;96958.97;5097705;28;19912;-92
2024/03/31 00:48:42;;;;;;;;;;;;;;;6.52;97.86;96972.44;5083041;28;20356;-92
2024/03/31 00:51:08;;;;;;;;;;;;;;;6.50;97.73;96971.50;5063046;28;19935;-91
2024/03/31 00:53:33;;;;;;;;;;;;;;;6.58;97.80;96977.81;5088814;28;19920;-93
2024/03/31 00:55:59;;;;;;;;;;;;;;;6.59;97.80;96984.91;5089287;28;19992;-92
2024/03/31 00:58:25;;;;;;;;;;;;;;;6.68;98.00;96988.59;5070909;28;20211;-92
2024/03/31 01:00:50;;;;;;;;;;;;;;;6.89;96.75;96987.13;5086452;28;19930;-92
2024/03/31 01:03:29;;;;;;;;;;;;;;;6.95;95.75;96987.25;5077985;28;19931;-92
2024/03/31 01:05:56;;;;;;;;;;;;;;;7.02;94.77;96977.63;5084144;28;19924;-92
2024/03/31 01:08:21;;;;;;;;;;;;;;;7.01;94.98;96976.72;5065765;28;19924;-91
2024/03/31 01:10:47;;;;;;;;;;;;;;;7.00;94.95;96963.47;5071587;28;20473;-92
2024/03/31 01:13:13;;;;;;;;;;;;;;;7.11;94.21;96953.88;5084688;28;19983;-92
2024/03/31 01:15:38;;;;;;;;;;;;;;;7.01;94.83;96941.38;5087532;28;20036;-91
2024/03/31 01:18:04;;;;;;;;;;;;;;;6.95;95.11;96955.44;5066641;28;19928;-92
2024/03/31 01:20:29;;;;;;;;;;;;;;;7.06;95.07;96956.47;5083120;28;20274;-92
2024/03/31 01:22:55;;;;;;;;;;;;;;;6.97;95.49;96958.09;5082363;28;19928;-91
2024/03/31 01:25:20;;;;;;;;;;;;;;;6.93;95.63;96960.69;5096379;28;20026;-91
2024/03/31 01:27:45;;;;;;;;;;;;;;;6.96;95.99;96946.63;5064613;28;19927;-92
2024/03/31 01:30:12;;;;;;;;;;;;;;;7.03;95.65;96937.84;5076055;28;20804;-93
2024/03/31 01:32:38;;;;;;;;;;;;;;;7.06;95.27;96932.63;5066311;28;19915;-92
2024/03/31 01:35:03;;;;;;;;;;;;;;;7.06;95.82;96926.41;5068859;28;19927;-92
2024/03/31 01:37:29;;;;;;;;;;;;;;;7.02;96.05;96925.47;5060651;28;20003;-92
2024/03/31 01:39:54;;;;;;;;;;;;;;;7.06;96.00;96926.41;5067933;28;20003;-91
2024/03/31 01:42:19;;;;;;;;;;;;;;;7.08;95.71;96933.50;5079068;28;19923;-91
2024/03/31 01:44:45;;;;;;;;;;;;;;;7.10;95.80;96925.59;5084986;28;19927;-92
2024/03/31 01:47:10;;;;;;;;;;;;;;;7.13;95.41;96913.25;5076124;28;19920;-93
2024/03/31 01:49:35;;;;;;;;;;;;;;;7.23;94.84;96908.94;5057891;28;20330;-91
2024/03/31 01:52:01;;;;;;;;;;;;;;;7.24;94.65;96909.88;5057463;28;19924;-91
2024/03/31 01:54:26;;;;;;;;;;;;;;;7.23;95.24;96905.41;5052803;28;20407;-92
2024/03/31 01:56:51;;;;;;;;;;;;;;;7.23;95.30;96911.59;5060360;28;19923;-92
2024/03/31 01:59:17;;;;;;;;;;;;;;;7.19;95.24;96910.69;5078658;28;19922;-92
2024/03/31 02:01:42;;;;;;;;;;;;;;;7.19;95.75;96909.81;5059525;28;19934;-91
2024/03/31 02:04:08;;;;;;;;;;;;;;;7.15;96.13;96913.28;5080184;28;20402;-92
2024/03/31 02:06:33;;;;;;;;;;;;;;;7.12;96.66;96902.63;5054173;28;19967;-93
2024/03/31 02:08:58;;;;;;;;;;;;;;;7.07;97.05;96910.53;5053773;28;19927;-92
2024/03/31 02:11:24;;;;;;;;;;;;;;;7.10;97.02;96913.22;5069298;28;19923;-91
2024/03/31 02:13:50;;;;;;;;;;;;;;;7.06;96.86;96922.00;5076097;28;19970;-91
2024/03/31 02:16:19;;;;;;;;;;;;;;;7.16;96.59;96910.66;5079441;28;19948;-93
2024/03/31 02:18:45;;;;;;;;;;;;;;;7.20;96.33;96907.16;5073600;28;19925;-92
2024/03/31 02:21:10;;;;;;;;;;;;;;;7.28;96.27;96896.66;5075567;28;20264;-92
2024/03/31 02:23:35;;;;;;;;;;;;;;;7.30;95.83;96908.16;5068138;28;19949;-92
2024/03/31 02:26:01;;;;;;;;;;;;;;;7.15;95.94;96905.34;5063434;28;19920;-92
2024/03/31 02:28:26;;;;;;;;;;;;;;;7.17;96.41;96914.19;5082310;28;19915;-91
2024/03/31 02:30:52;;;;;;;;;;;;;;;7.00;96.79;96916.63;5060963;28;19945;-92
2024/03/31 02:33:18;;;;;;;;;;;;;;;6.83;97.38;96916.38;5075742;28;19927;-92
2024/03/31 02:35:43;;;;;;;;;;;;;;;6.72;97.75;96907.38;5082037;28;19956;-92
2024/03/31 02:38:09;;;;;;;;;;;;;;;6.65;98.27;96906.38;5063247;28;19916;-92
2024/03/31 02:40:34;;;;;;;;;;;;;;;6.66;98.69;96899.34;5055527;28;19966;-93
2024/03/31 02:43:00;;;;;;;;;;;;;;;6.60;99.13;96892.19;5063794;28;19920;-92
2024/03/31 02:45:27;;;;;;;;;;;;;;;6.50;99.83;96876.13;5060033;28;20140;-92
2024/03/31 02:47:53;;;;;;;;;;;;;;;6.34;100.00;96860.00;5074909;28;19954;-92
2024/03/31 02:50:18;;;;;;;;;;;;;;;6.33;100.00;96837.06;5078034;28;20254;-92
2024/03/31 02:52:44;;;;;;;;;;;;;;;6.33;100.00;96825.56;5061330;28;20361;-92
2024/03/31 02:55:10;;;;;;;;;;;;;;;6.44;100.00;96831.91;5062508;28;19928;-92
2024/03/31 02:57:35;;;;;;;;;;;;;;;6.43;100.00;96833.66;5058828;28;20280;-93
2024/03/31 03:00:00;;;;;;;;;;;;;;;6.40;100.00;96833.59;5059715;28;19923;-93
2024/03/31 03:02:27;;;;;;;;;;;;;;;6.41;100.00;96816.84;5078457;28;19920;-91
2024/03/31 03:04:52;;;;;;;;;;;;;;;6.47;100.00;96833.69;5057187;28;20336;-92
2024/03/31 03:07:18;;;;;;;;;;;;;;;6.49;100.00;96853.16;5065616;28;19924;-92
2024/03/31 03:09:44;;;;;;;;;;;;;;;6.47;100.00;96860.19;5062001;28;20022;-91
2024/03/31 03:12:10;;;;;;;;;;;;;;;6.52;100.00;96863.81;5065380;28;19920;-93
2024/03/31 03:14:36;;;;;;;;;;;;;;;6.38;100.00;96868.91;5065841;28;19927;-92
2024/03/31 03:17:01;;;;;;;;;;;;;;;6.53;100.00;96871.78;5061610;28;19974;-91
2024/03/31 03:19:27;;;;;;;;;;;;;;;6.39;100.00;96879.50;5064208;28;19916;-92
2024/03/31 03:21:53;;;;;;;;;;;;;;;6.21;100.00;96878.31;5065560;28;20325;-94
2024/03/31 03:24:18;;;;;;;;;;;;;;;6.17;100.00;96875.63;5089943;28;19979;-92
2024/03/31 03:26:47;;;;;;;;;;;;;;;6.03;100.00;96873.63;5070861;28;20475;-92
2024/03/31 03:29:12;;;;;;;;;;;;;;;5.73;100.00;96858.97;5089746;28;20360;-92
2024/03/31 03:31:37;;;;;;;;;;;;;;;6.00;100.00;96841.81;5083837;28;19919;-93
2024/03/31 03:34:03;;;;;;;;;;;;;;;5.85;100.00;96838.00;5084726;28;20372;-93
2024/03/31 03:36:28;;;;;;;;;;;;;;;5.70;100.00;96848.34;5084907;28;19928;-93
2024/03/31 03:38:53;;;;;;;;;;;;;;;5.28;100.00;96849.31;5092096;28;20356;-92
2024/03/31 03:41:26;;;;;;;;;;;;;;;5.05;100.00;96851.50;5062421;28;20453;-92
2024/03/31 03:43:53;;;;;;;;;;;;;;;5.06;100.00;96836.53;5066403;28;19965;-92
2024/03/31 03:46:18;;;;;;;;;;;;;;;5.02;100.00;96829.41;5079837;28;19939;-92
2024/03/31 03:48:44;;;;;;;;;;;;;;;5.07;100.00;96833.03;5062308;28;20566;-92
2024/03/31 03:51:09;;;;;;;;;;;;;;;5.34;100.00;96838.84;5059310;28;20011;-92
2024/03/31 03:53:36;;;;;;;;;;;;;;;5.14;100.00;96834.94;5061670;28;19973;-92
2024/03/31 03:56:01;;;;;;;;;;;;;;;4.88;100.00;96823.84;5063499;28;19973;-92
2024/03/31 03:58:27;;;;;;;;;;;;;;;4.96;100.00;96829.28;5066939;28;20360;-92
2024/03/31 04:00:52;;;;;;;;;;;;;;;4.94;100.00;96842.47;5060910;28;20340;-92
2024/03/31 04:03:17;;;;;;;;;;;;;;;4.95;100.00;96843.38;5082288;28;19919;-92
2024/03/31 04:05:52;;;;;;;;;;;;;;;4.68;100.00;96841.03;5064596;28;19931;-92
2024/03/31 04:08:17;;;;;;;;;;;;;;;4.69;100.00;96840.16;5078189;28;19916;-91
2024/03/31 04:10:42;;;;;;;;;;;;;;;4.32;100.00;96849.94;5077085;28;19982;-91
2024/03/31 04:13:08;;;;;;;;;;;;;;;4.15;100.00;96846.88;5061760;28;19959;-92
2024/03/31 04:15:34;;;;;;;;;;;;;;;4.37;100.00;96849.16;5062498;28;19924;-93
2024/03/31 04:17:59;;;;;;;;;;;;;;;4.34;100.00;96843.81;5062828;28;20476;-91
2024/03/31 04:20:24;;;;;;;;;;;;;;;3.99;100.00;96845.63;5070504;28;19916;-92
2024/03/31 04:22:50;;;;;;;;;;;;;;;3.98;100.00;96853.53;5086209;28;20045;-92
2024/03/31 04:25:16;;;;;;;;;;;;;;;3.83;100.00;96846.09;5070351;28;19966;-91
2024/03/31 04:27:41;;;;;;;;;;;;;;;3.83;100.00;96838.19;5064532;28;19971;-92
2024/03/31 04:30:06;;;;;;;;;;;;;;;3.94;100.00;96835.84;5062856;28;19943;-92
2024/03/31 04:32:32;;;;;;;;;;;;;;;3.90;100.00;96832.22;5079924;28;19916;-92
2024/03/31 04:34:57;;;;;;;;;;;;;;;3.70;100.00;96834.38;5075006;28;20100;-92
2024/03/31 04:37:23;;;;;;;;;;;;;;;3.74;100.00;96853.81;5062875;28;19955;-91
2024/03/31 04:39:51;;;;;;;;;;;;;;;3.84;100.00;96850.53;5070852;28;19960;-92
2024/03/31 04:42:18;;;;;;;;;;;;;;;3.49;100.00;96865.44;5068273;28;19920;-92
2024/03/31 04:44:43;;;;;;;;;;;;;;;3.27;100.00;96874.53;5067502;28;19930;-92
2024/03/31 04:47:09;;;;;;;;;;;;;;;3.57;100.00;96882.34;5078257;28;19924;-92
2024/03/31 04:49:34;;;;;;;;;;;;;;;3.42;100.00;96888.13;5086111;28;19944;-93
2024/03/31 04:52:01;;;;;;;;;;;;;;;3.47;100.00;96889.13;5116016;28;19995;-92
2024/03/31 04:54:28;;;;;;;;;;;;;;;3.36;100.00;96900.25;5079142;28;20033;-93
2024/03/31 04:56:54;;;;;;;;;;;;;;;3.10;100.00;96887.22;5100446;28;19961;-92
2024/03/31 04:59:20;;;;;;;;;;;;;;;3.11;100.00;96886.38;5067235;28;19912;-92
2024/03/31 05:01:46;;;;;;;;;;;;;;;3.01;100.00;96881.69;5061441;28;19920;-92
2024/03/31 05:04:11;;;;;;;;;;;;;;;3.23;100.00;96886.72;5083431;28;19920;-91
2024/03/31 05:06:38;;;;;;;;;;;;;;;3.05;100.00;96889.72;5078918;28;19964;-92
2024/03/31 05:09:04;;;;;;;;;;;;;;;2.94;100.00;96888.53;5071336;28;20012;-92
2024/03/31 05:11:30;;;;;;;;;;;;;;;3.18;100.00;96890.97;5082859;28;20014;-92
2024/03/31 05:13:56;;;;;;;;;;;;;;;3.42;100.00;96892.50;5067975;28;20490;-92
2024/03/31 05:16:22;;;;;;;;;;;;;;;3.24;100.00;96895.53;5075495;28;19920;-91
2024/03/31 05:18:51;;;;;;;;;;;;;;;3.29;100.00;96896.53;5078783;28;19946;-91
2024/03/31 05:21:16;;;;;;;;;;;;;;;3.24;100.00;96901.69;5063181;28;19919;-92
2024/03/31 05:23:45;;;;;;;;;;;;;;;3.29;100.00;96899.16;5079275;28;20322;-92
2024/03/31 05:26:12;;;;;;;;;;;;;;;3.42;100.00;96906.56;5076283;28;20333;-91
2024/03/31 05:28:40;;;;;;;;;;;;;;;3.56;100.00;96901.69;5078160;28;20002;-91
2024/03/31 05:31:06;;;;;;;;;;;;;;;3.53;100.00;96907.75;5059777;28;20014;-91
2024/03/31 05:33:38;;;;;;;;;;;;;;;3.44;100.00;96914.50;5063312;28;19923;-90
2024/03/31 05:36:03;;;;;;;;;;;;;;;3.46;100.00;96918.09;5057654;28;19958;-90
2024/03/31 05:38:29;;;;;;;;;;;;;;;3.66;100.00;96916.88;5068256;28;19908;-92
2024/03/31 05:41:04;;;;;;;;;;;;;;;3.73;100.00;96916.19;5057385;28;19927;-92
2024/03/31 05:43:29;;;;;;;;;;;;;;;3.94;100.00;96926.41;5061469;28;19920;-92
2024/03/31 05:45:55;;;;;;;;;;;;;;;3.93;100.00;96923.72;5062359;28;19920;-91
2024/03/31 05:48:20;;;;;;;;;;;;;;;3.92;100.00;96924.56;5065394;28;20078;-91
2024/03/31 05:50:49;;;;;;;;;;;;;;;4.16;100.00;96911.09;5079992;28;19916;-91
2024/03/31 05:53:15;;;;;;;;;;;;;;;4.30;100.00;96907.94;5068009;28;20138;-92
2024/03/31 05:55:40;;;;;;;;;;;;;;;4.41;100.00;96896.75;5067132;28;19920;-91
2024/03/31 05:58:05;;;;;;;;;;;;;;;4.45;100.00;96882.75;5061849;28;19920;-92
2024/03/31 06:00:31;;;;;;;;;;;;;;;4.58;100.00;96880.44;5071613;28;20003;-92
2024/03/31 06:02:57;;;;;;;;;;;;;;;4.67;100.00;96877.13;5108754;28;19977;-91
2024/03/31 06:05:22;;;;;;;;;;;;;;;4.92;100.00;96869.72;5074260;28;19919;-92
2024/03/31 06:07:48;;;;;;;;;;;;;;;4.96;100.00;96855.72;5065880;28;20197;-92
2024/03/31 06:10:14;;;;;;;;;;;;;;;5.01;100.00;96859.34;5066227;28;19966;-92
2024/03/31 06:12:41;;;;;;;;;;;;;;;5.06;100.00;96849.75;5091071;28;19965;-92
2024/03/31 06:15:06;;;;;;;;;;;;;;;4.97;100.00;96847.81;5073748;28;19924;-91
2024/03/31 06:17:32;;;;;;;;;;;;;;;5.02;100.00;96858.47;5089766;28;20422;-92
2024/03/31 06:19:58;;;;;;;;;;;;;;;5.07;100.00;96848.88;5087123;28;19928;-92
2024/03/31 06:22:23;;;;;;;;;;;;;;;5.01;100.00;96841.72;5067389;28;19929;-91
2024/03/31 06:24:48;;;;;;;;;;;;;;;5.05;100.00;96832.13;5054624;28;19966;-92
2024/03/31 06:27:14;;;;;;;;;;;;;;;5.07;100.00;96822.44;5087899;28;19946;-91
2024/03/31 06:29:41;;;;;;;;;;;;;;;5.16;100.00;96814.69;5080142;28;19965;-91
2024/03/31 06:32:07;;;;;;;;;;;;;;;5.08;100.00;96803.13;5057977;28;19920;-93
2024/03/31 06:34:32;;;;;;;;;;;;;;;5.09;100.00;96802.25;5081996;28;20254;-92
2024/03/31 06:36:58;;;;;;;;;;;;;;;5.25;100.00;96799.03;5066211;28;20018;-91
2024/03/31 06:39:23;;;;;;;;;;;;;;;5.55;100.00;96797.78;5061426;28;20011;-90
2024/03/31 06:41:49;;;;;;;;;;;;;;;5.89;100.00;96793.94;5068981;28;19917;-90
2024/03/31 06:44:14;;;;;;;;;;;;;;;6.35;100.00;96792.94;5067609;28;19928;-91
2024/03/31 06:46:40;;;;;;;;;;;;;;;6.62;97.57;96789.78;5064641;28;19955;-90
2024/03/31 06:49:05;;;;;;;;;;;;;;;6.72;96.41;96789.91;5076646;28;19921;-91
2024/03/31 06:51:31;;;;;;;;;;;;;;;7.03;94.33;96776.13;5072274;28;19920;-90
2024/03/31 06:53:57;;;;;;;;;;;;;;;7.72;94.76;96767.09;5091835;28;19931;-89
2024/03/31 06:56:24;;;;;;;;;;;;;;;8.33;91.32;96774.63;5087780;28;19923;-90
2024/03/31 06:58:49;;;;;;;;;;;;;;;8.79;89.57;96772.25;5044757;28;20276;-89
2024/03/31 07:01:15;;;;;;;;;;;;;;;9.29;86.48;96773.31;5060361;28;19924;-90
2024/03/31 07:03:41;;;;;;;;;;;;;;;9.93;84.83;96774.31;5074079;28;19920;-90
2024/03/31 07:06:06;;;;;;;;;;;;;;;10.58;82.96;96767.13;5072766;28;19918;-91
2024/03/31 07:08:32;;;;;;;;;;;;;;;10.48;79.40;96781.38;5063701;28;19920;-89
2024/03/31 07:10:58;;;;;;;;;;;;;;;10.84;80.36;96785.75;5063684;28;19954;-89
2024/03/31 07:13:23;;;;;;;;;;;;;;;10.94;81.04;96784.81;5063597;28;19916;-91
2024/03/31 07:15:49;;;;;;;;;;;;;;;11.15;79.29;96777.59;5057407;28;19928;-89
2024/03/31 07:18:14;;;;;;;;;;;;;;;11.43;78.33;96773.00;5077370;28;19924;-90
2024/03/31 07:20:40;;;;;;;;;;;;;;;10.91;79.77;96779.47;5050673;28;19916;-91
2024/03/31 07:23:06;;;;;;;;;;;;;;;10.85;78.55;96774.16;5080863;28;19939;-91
2024/03/31 07:25:32;;;;;;;;;;;;;;;11.29;77.99;96765.09;5077197;28;19920;-91
2024/03/31 07:27:57;;;;;;;;;;;;;;;11.62;77.49;96752.44;5074131;28;19966;-92
2024/03/31 07:30:23;;;;;;;;;;;;;;;11.63;76.19;96754.19;5057763;28;20268;-91
2024/03/31 07:32:54;;;;;;;;;;;;;;;11.74;75.58;96755.03;5080119;28;19920;-89
2024/03/31 07:35:19;;;;;;;;;;;;;;;11.39;74.79;96757.91;5072490;28;19916;-90
2024/03/31 07:37:45;;;;;;;;;;;;;;;11.47;75.04;96754.31;5068114;28;19925;-90
2024/03/31 07:40:10;;;;;;;;;;;;;;;12.15;73.53;96757.38;5058986;28;19928;-91
2024/03/31 07:42:37;;;;;;;;;;;;;;;12.55;71.99;96765.00;5076286;28;19999;-90
2024/03/31 07:45:03;;;;;;;;;;;;;;;13.00;68.62;96755.59;5090584;28;20368;-89
2024/03/31 07:47:29;;;;;;;;;;;;;;;13.46;66.99;96757.72;5078030;28;19924;-91
2024/03/31 07:49:55;;;;;;;;;;;;;;;14.18;64.83;96743.19;5075818;28;19920;-91
2024/03/31 07:52:21;;;;;;;;;;;;;;;14.94;61.66;96732.84;5090280;28;20319;-91
2024/03/31 07:54:47;;;;;;;;;;;;;;;15.44;59.52;96725.53;5073726;28;20311;-91
2024/03/31 07:57:12;;;;;;;;;;;;;;;15.17;60.17;96727.00;5071145;28;19978;-90
2024/03/31 07:59:37;;;;;;;;;;;;;;;15.58;59.35;96733.28;5078679;28;19920;-92
2024/03/31 08:02:03;;;;;;;;;;;;;;;16.48;56.42;96724.81;5058789;28;20356;-90
2024/03/31 08:04:29;;;;;;;;;;;;;;;17.04;54.12;96726.00;5083962;28;20079;-91
2024/03/31 08:06:54;;;;;;;;;;;;;;;17.05;53.52;96710.72;5083319;28;20011;-92
2024/03/31 08:09:20;;;;;;;;;;;;;;;17.50;51.79;96708.47;5087035;28;20681;-92
2024/03/31 08:11:45;;;;;;;;;;;;;;;16.52;54.46;96707.66;5083075;28;19971;-92
2024/03/31 08:14:11;;;;;;;;;;;;;;;15.59;57.84;96706.38;5068096;28;19927;-93
2024/03/31 08:16:36;;;;;;;;;;;;;;;15.61;57.58;96701.81;5098445;28;19919;-91
2024/03/31 08:19:02;;;;;;;;;;;;;;;16.23;55.88;96703.94;5064826;28;19916;-92
2024/03/31 08:21:27;;;;;;;;;;;;;;;15.67;57.74;96699.97;5098137;28;20343;-91
2024/03/31 08:23:54;;;;;;;;;;;;;;;15.09;58.27;96703.00;5063163;28;19916;-90
2024/03/31 08:26:20;;;;;;;;;;;;;;;16.44;55.27;96697.13;5084182;28;19926;-91
2024/03/31 08:28:46;;;;;;;;;;;;;;;17.32;53.26;96698.25;5063947;28;19920;-91
2024/03/31 08:31:11;;;;;;;;;;;;;;;15.37;57.01;96710.44;5083468;28;19963;-92
2024/03/31 08:33:36;;;;;;;;;;;;;;;15.38;57.04;96718.50;5069097;28;19987;-92
2024/03/31 08:36:02;;;;;;;;;;;;;;;15.09;58.04;96719.13;5098527;28;19966;-91
2024/03/31 08:38:27;;;;;;;;;;;;;;;15.95;57.34;96730.63;5076827;28;19935;-92
2024/03/31 08:41:00;;;;;;;;;;;;;;;15.48;57.48;96724.56;5090840;28;19980;-91
2024/03/31 08:43:27;;;;;;;;;;;;;;;15.61;58.14;96717.06;5108259;28;19920;-92
2024/03/31 08:45:55;;;;;;;;;;;;;;;13.73;60.57;96723.38;5109012;28;19942;-91
2024/03/31 08:48:20;;;;;;;;;;;;;;;14.47;60.22;96712.25;5094391;28;19912;-92
2024/03/31 08:50:49;;;;;;;;;;;;;;;15.01;59.03;96712.16;5114559;28;19976;-92
2024/03/31 08:53:15;;;;;;;;;;;;;;;16.03;56.25;96700.88;5089048;28;19920;-91
2024/03/31 08:55:40;;;;;;;;;;;;;;;16.67;54.00;96696.47;5063850;28;19958;-93
2024/03/31 08:58:07;;;;;;;;;;;;;;;16.47;54.53;96697.03;5078260;28;19915;-90
2024/03/31 09:00:33;;;;;;;;;;;;;;;15.31;58.05;96707.91;5078818;28;19989;-91
2024/03/31 09:02:59;;;;;;;;;;;;;;;14.59;58.89;96721.00;5076695;28;19924;-92
2024/03/31 09:05:24;;;;;;;;;;;;;;;14.69;57.86;96712.78;5085039;28;19941;-92
2024/03/31 09:07:50;;;;;;;;;;;;;;;14.58;59.74;96707.63;5086043;28;19916;-92
2024/03/31 09:10:15;;;;;;;;;;;;;;;15.46;57.02;96699.50;5109117;28;19911;-92
2024/03/31 09:12:42;;;;;;;;;;;;;;;17.00;52.73;96704.56;5088521;28;19927;-91
2024/03/31 09:15:08;;;;;;;;;;;;;;;16.39;53.61;96697.25;5086265;28;19927;-92
2024/03/31 09:17:33;;;;;;;;;;;;;;;14.70;57.39;96695.75;5097969;28;20363;-92
2024/03/31 09:20:01;;;;;;;;;;;;;;;14.95;57.01;96680.03;5082721;28;19924;-93
2024/03/31 09:22:29;;;;;;;;;;;;;;;14.68;57.84;96679.69;5070578;28;19935;-92
2024/03/31 09:24:55;;;;;;;;;;;;;;;14.85;58.32;96684.69;5085664;28;19927;-90
2024/03/31 09:27:20;;;;;;;;;;;;;;;15.10;57.67;96680.59;5084678;28;19916;-92
2024/03/31 09:29:46;;;;;;;;;;;;;;;15.20;57.46;96672.34;5070287;28;19916;-91
2024/03/31 09:32:12;;;;;;;;;;;;;;;14.87;58.10;96669.47;5063461;28;19920;-90
2024/03/31 09:34:43;;;;;;;;;;;;;;;15.19;57.15;96665.19;5064078;28;20649;-92
2024/03/31 09:37:10;;;;;;;;;;;;;;;15.92;55.12;96652.72;5088318;28;20002;-92
2024/03/31 09:39:36;;;;;;;;;;;;;;;18.02;51.20;96652.00;5066075;28;20002;-93
2024/03/31 09:42:01;;;;;;;;;;;;;;;18.28;47.23;96643.88;5070763;28;19978;-94
2024/03/31 09:44:28;;;;;;;;;;;;;;;17.23;50.61;96653.56;5063833;28;19942;-93
2024/03/31 09:46:56;;;;;;;;;;;;;;;18.36;49.29;96632.81;5091506;28;19920;-94
2024/03/31 09:49:23;;;;;;;;;;;;;;;17.91;48.49;96633.44;5112865;28;19916;-93
2024/03/31 09:51:53;;;;;;;;;;;;;;;17.79;50.07;96633.88;5073308;28;20302;-92
2024/03/31 09:54:22;;;;;;;;;;;;;;;17.31;50.76;96619.19;5083618;28;19923;-92
2024/03/31 09:57:10;;;;;;;;;;;;;;;18.36;49.66;96616.63;5074830;28;19943;-92
2024/03/31 09:59:39;;;;;;;;;;;;;;;18.38;49.56;96626.41;5077107;28;19971;-93
2024/03/31 10:02:06;;;;;;;;;;;;;;;17.64;50.93;96635.22;5067430;28;20365;-93
2024/03/31 10:04:35;;;;;;;;;;;;;;;18.58;48.86;96622.13;5065488;28;20050;-93
2024/03/31 10:07:01;;;;;;;;;;;;;;;18.70;45.96;96611.78;5086285;28;20382;-94
2024/03/31 10:09:27;;;;;;;;;;;;;;;19.67;43.63;96594.50;5074354;28;19967;-94
2024/03/31 10:11:53;;;;;;;;;;;;;;;19.01;47.72;96597.09;5082643;28;19927;-93
2024/03/31 10:14:19;;;;;;;;;;;;;;;19.27;45.72;96596.09;5074488;28;19924;-94
2024/03/31 10:16:47;;;;;;;;;;;;;;;19.48;44.91;96588.94;5080319;28;20381;-93
2024/03/31 10:19:14;;;;;;;;;;;;;;;18.26;47.45;96588.19;5082704;28;20116;-93
2024/03/31 10:21:40;;;;;;;;;;;;;;;18.16;47.89;96585.81;5083866;28;19931;-93
2024/03/31 10:24:10;;;;;;;;;;;;;;;18.73;46.57;96575.66;5068991;28;20652;-93
2024/03/31 10:26:37;;;;;;;;;;;;;;;19.37;44.12;96558.75;5081781;28;19930;-94
2024/03/31 10:29:05;;;;;;;;;;;;;;;19.47;44.42;96566.44;5088978;28;19979;-93
2024/03/31 10:31:31;;;;;;;;;;;;;;;21.90;39.95;96562.63;5068772;28;19950;-93
2024/03/31 10:33:56;;;;;;;;;;;;;;;22.29;37.30;96548.00;5091211;28;19927;-94
2024/03/31 10:36:23;;;;;;;;;;;;;;;23.18;35.54;96544.03;5086016;28;19981;-93
2024/03/31 10:38:48;;;;;;;;;;;;;;;19.93;42.63;96556.44;5072347;28;19920;-93
2024/03/31 10:41:14;;;;;;;;;;;;;;;21.10;40.09;96549.34;5089635;28;19927;-95
2024/03/31 10:43:41;;;;;;;;;;;;;;;19.53;43.56;96545.47;5073035;28;20459;-94
2024/03/31 10:46:08;;;;;;;;;;;;;;;22.26;38.33;96538.16;5077889;28;19959;-92
2024/03/31 10:48:35;;;;;;;;;;;;;;;21.94;39.33;96536.19;5085334;28;19987;-94
2024/03/31 10:51:13;;;;;;;;;;;;;;;21.38;39.25;96543.50;5068106;28;20001;-94
2024/03/31 10:53:39;;;;;;;;;;;;;;;19.95;42.10;96542.81;5077614;28;19965;-94
2024/03/31 10:56:06;;;;;;;;;;;;;;;19.42;44.02;96554.91;5093818;28;20018;-93
2024/03/31 10:58:32;;;;;;;;;;;;;;;21.91;39.16;96558.06;5059686;28;19931;-94
2024/03/31 11:00:58;;;;;;;;;;;;;;;23.28;34.19;96558.00;5061623;28;19958;-93
2024/03/31 11:03:33;;;;;;;;;;;;;;;20.35;40.20;96563.59;5083795;28;19924;-91
2024/03/31 11:05:58;;;;;;;;;;;;;;;21.63;39.25;96554.03;5065759;28;19920;-93
2024/03/31 11:08:24;;;;;;;;;;;;;;;21.34;40.35;96552.75;5059892;28;19920;-92
2024/03/31 11:10:50;;;;;;;;;;;;;;;20.70;40.38;96562.06;5074658;28;19914;-93
2024/03/31 11:13:15;;;;;;;;;;;;;;;19.90;43.03;96558.38;5071942;28;19920;-92
2024/03/31 11:15:40;;;;;;;;;;;;;;;20.17;41.91;96557.19;5082712;28;19912;-93
2024/03/31 11:18:07;;;;;;;;;;;;;;;19.85;41.84;96550.47;5084410;28;20579;-93
2024/03/31 11:20:39;;;;;;;;;;;;;;;20.39;40.05;96543.56;5063942;28;19970;-92
2024/03/31 11:23:07;;;;;;;;;;;;;;;21.13;40.28;96542.91;5076307;28;19920;-93
2024/03/31 11:25:33;;;;;;;;;;;;;;;19.68;42.72;96542.16;5055645;28;19963;-93
2024/03/31 11:27:59;;;;;;;;;;;;;;;19.68;42.96;96542.16;5053119;28;19913;-93
2024/03/31 11:30:24;;;;;;;;;;;;;;;19.70;42.38;96546.59;5059526;28;19924;-92
2024/03/31 11:32:49;;;;;;;;;;;;;;;18.71;44.68;96543.31;5071786;28;20036;-92
2024/03/31 11:35:16;;;;;;;;;;;;;;;18.26;45.28;96548.59;5055756;28;19920;-93
2024/03/31 11:37:41;;;;;;;;;;;;;;;18.73;45.60;96540.53;5078775;28;19970;-92
2024/03/31 11:40:08;;;;;;;;;;;;;;;18.68;45.91;96538.03;5061264;28;19959;-93
2024/03/31 11:42:33;;;;;;;;;;;;;;;18.39;45.11;96535.50;5081254;28;19920;-93
2024/03/31 11:44:59;;;;;;;;;;;;;;;18.52;44.76;96539.50;5060920;28;19920;-92
2024/03/31 11:47:24;;;;;;;;;;;;;;;18.24;45.75;96547.72;5076249;28;19924;-92
2024/03/31 11:49:50;;;;;;;;;;;;;;;18.52;45.21;96533.22;5061869;28;19919;-91
2024/03/31 11:52:16;;;;;;;;;;;;;;;18.61;45.50;96535.59;5076318;28;19973;-91
2024/03/31 11:54:41;;;;;;;;;;;;;;;18.85;45.57;96533.78;5086534;28;19929;-91
2024/03/31 11:57:08;;;;;;;;;;;;;;;18.30;45.26;96525.94;5080879;28;19916;-91
2024/03/31 11:59:34;;;;;;;;;;;;;;;18.32;46.17;96515.06;5064503;28;19916;-91
2024/03/31 12:02:03;;;;;;;;;;;;;;;18.14;46.87;96525.59;5069716;28;19921;-91
2024/03/31 12:04:30;;;;;;;;;;;;;;;18.98;45.70;96512.59;5063234;28;20386;-91
2024/03/31 12:06:56;;;;;;;;;;;;;;;19.53;43.92;96505.78;5068600;28;20011;-92
2024/03/31 12:09:22;;;;;;;;;;;;;;;19.75;44.41;96510.34;5060898;28;19999;-92
2024/03/31 12:11:48;;;;;;;;;;;;;;;19.54;42.70;96498.53;5064812;28;20436;-92
2024/03/31 12:14:13;;;;;;;;;;;;;;;20.96;41.69;96493.06;5059372;28;19930;-93
2024/03/31 12:16:44;;;;;;;;;;;;;;;20.27;42.24;96499.94;5072094;28;19967;-92
2024/03/31 12:19:12;;;;;;;;;;;;;;;20.52;42.19;96489.75;5087194;28;20027;-91
2024/03/31 12:21:38;;;;;;;;;;;;;;;19.87;43.25;96483.59;5072396;28;19923;-92
2024/03/31 12:24:03;;;;;;;;;;;;;;;20.82;41.95;96481.13;5076793;28;19916;-91
2024/03/31 12:26:29;;;;;;;;;;;;;;;22.86;38.35;96472.41;5082212;28;19937;-93
2024/03/31 12:28:55;;;;;;;;;;;;;;;22.20;40.76;96470.56;5065112;28;20356;-93
2024/03/31 12:31:21;;;;;;;;;;;;;;;21.94;39.30;96476.44;5070528;28;19926;-94
2024/03/31 12:33:47;;;;;;;;;;;;;;;23.05;37.64;96472.28;5066859;28;19916;-93
2024/03/31 12:36:13;;;;;;;;;;;;;;;23.65;35.93;96472.44;5066688;28;19926;-94
2024/03/31 12:38:40;;;;;;;;;;;;;;;22.02;39.17;96466.06;5058289;28;19939;-94
2024/03/31 12:41:05;;;;;;;;;;;;;;;24.17;35.37;96447.50;5064868;28;20729;-93
2024/03/31 12:43:32;;;;;;;;;;;;;;;21.85;38.70;96449.81;5065258;28;19924;-94